createdAt,value
2022-09-10T00:01:12.757Z,11.30
2022-09-10T00:04:16.155Z,11.30
2022-09-10T00:07:18.708Z,11.20
2022-09-10T00:10:20.895Z,11.10
2022-09-10T00:13:23.517Z,11.10
2022-09-10T00:16:27.734Z,11.20
2022-09-10T00:19:31.408Z,11.20
2022-09-10T00:22:34.440Z,11.20
2022-09-10T00:25:36.676Z,11.10
2022-09-10T00:28:38.796Z,11.10
2022-09-10T00:31:40.773Z,11.20
2022-09-10T00:34:42.737Z,11.20
2022-09-10T00:37:44.540Z,11.30
2022-09-10T00:40:49.017Z,11.20
2022-09-10T00:43:58.283Z,11.20
2022-09-10T00:47:00.424Z,11.30
2022-09-10T00:50:23.733Z,11.30
2022-09-10T00:53:30.712Z,11.20
2022-09-10T00:56:34.308Z,11.20
2022-09-10T00:59:36.494Z,11.30
2022-09-10T01:02:38.605Z,11.30
2022-09-10T01:05:44.189Z,11.40
2022-09-10T01:08:46.053Z,11.40
2022-09-10T01:12:04.403Z,11.50
2022-09-10T01:15:29.270Z,11.30
2022-09-10T01:18:53.598Z,11.30
2022-09-10T01:22:57.579Z,11.30
2022-09-10T01:26:27.826Z,11.30
2022-09-10T01:29:39.648Z,11.30
2022-09-10T01:32:50.693Z,11.30
2022-09-10T01:36:00.027Z,11.20
2022-09-10T01:39:03.016Z,11.40
2022-09-10T01:42:05.347Z,11.30
2022-09-10T01:45:08.101Z,11.20
2022-09-10T01:48:55.260Z,11.20
2022-09-10T01:52:32.010Z,11.30
2022-09-10T01:55:38.073Z,11.30
2022-09-10T01:58:43.227Z,11.30
2022-09-10T02:01:52.732Z,11.20
2022-09-10T02:04:56.521Z,11.30
2022-09-10T02:08:03.742Z,11.20
2022-09-10T02:11:09.632Z,11.10
2022-09-10T02:14:14.155Z,11.10
2022-09-10T02:17:17.035Z,11.10
2022-09-10T02:20:19.806Z,11.10
2022-09-10T02:23:28.876Z,11.10
2022-09-10T02:26:30.916Z,11.00
2022-09-10T02:29:33.297Z,11.10
2022-09-10T02:32:35.121Z,11.10
2022-09-10T02:35:36.992Z,11.30
2022-09-10T02:38:38.851Z,11.30
2022-09-10T02:41:41.613Z,11.20
2022-09-10T02:44:44.448Z,11.20
2022-09-10T02:47:46.300Z,11.10
2022-09-10T02:50:48.422Z,11.10
2022-09-10T02:53:50.448Z,11.00
2022-09-10T02:56:52.257Z,11.00
2022-09-10T02:59:54.235Z,11.00
2022-09-10T03:03:00.950Z,11.20
2022-09-10T03:06:05.203Z,11.10
2022-09-10T03:09:07.185Z,11.00
2022-09-10T03:12:09.101Z,11.00
2022-09-10T03:15:11.117Z,11.10
2022-09-10T03:18:13.106Z,11.10
2022-09-10T03:21:25.239Z,11.00
2022-09-10T03:24:28.476Z,11.10
2022-09-10T03:27:30.528Z,11.10
2022-09-10T03:30:32.840Z,11.00
2022-09-10T03:33:35.286Z,11.00
2022-09-10T03:36:37.161Z,11.10
2022-09-10T03:39:39.036Z,11.00
2022-09-10T03:42:41.361Z,11.10
2022-09-10T03:45:43.341Z,11.10
2022-09-10T03:48:45.269Z,11.10
2022-09-10T03:51:48.237Z,11.10
2022-09-10T03:54:51.195Z,11.00
2022-09-10T03:57:53.054Z,11.10
2022-09-10T04:00:54.986Z,11.10
2022-09-10T04:03:57.542Z,11.00
2022-09-10T04:06:59.544Z,11.00
2022-09-10T04:10:01.376Z,11.10
2022-09-10T04:13:03.278Z,11.00
2022-09-10T04:16:05.260Z,11.00
2022-09-10T04:19:07.172Z,11.10
2022-09-10T04:22:09.010Z,11.00
2022-09-10T04:25:11.104Z,11.10
2022-09-10T04:28:13.418Z,11.20
2022-09-10T04:31:15.406Z,11.20
2022-09-10T04:34:17.253Z,11.20
2022-09-10T04:37:19.532Z,11.10
2022-09-10T04:40:23.465Z,11.00
2022-09-10T04:43:26.070Z,11.10
2022-09-10T04:46:27.957Z,11.20
2022-09-10T04:49:29.823Z,11.30
2022-09-10T04:52:31.626Z,11.40
2022-09-10T04:55:33.878Z,11.60
2022-09-10T04:58:38.822Z,11.60
2022-09-10T05:01:41.404Z,11.60
2022-09-10T05:04:43.382Z,11.60
2022-09-10T05:07:45.266Z,11.70
2022-09-10T05:10:47.125Z,11.80
2022-09-10T05:13:49.512Z,12.10
2022-09-10T05:16:51.773Z,12.30
2022-09-10T05:19:53.614Z,12.10
2022-09-10T05:22:56.215Z,12.20
2022-09-10T05:25:58.548Z,12.20
2022-09-10T05:29:00.375Z,12.30
2022-09-10T05:32:02.444Z,12.50
2022-09-10T05:35:05.628Z,12.60
2022-09-10T05:38:08.364Z,12.50
2022-09-10T05:41:10.900Z,12.80
2022-09-10T05:44:13.394Z,12.70
2022-09-10T05:47:17.573Z,12.80
2022-09-10T05:50:20.128Z,12.90
2022-09-10T05:53:21.993Z,13.00
2022-09-10T05:56:25.796Z,13.00
2022-09-10T05:59:27.634Z,13.10
2022-09-10T06:02:29.611Z,12.90
2022-09-10T06:05:31.943Z,13.00
2022-09-10T06:08:34.183Z,13.00
2022-09-10T06:11:36.033Z,12.90
2022-09-10T06:14:37.989Z,13.00
2022-09-10T06:17:40.258Z,13.30
2022-09-10T06:20:42.127Z,13.10
2022-09-10T06:23:45.086Z,13.00
2022-09-10T06:26:50.182Z,13.00
2022-09-10T06:29:52.092Z,13.10
2022-09-10T06:32:54.106Z,13.10
2022-09-10T06:35:57.669Z,13.20
2022-09-10T06:38:59.953Z,13.20
2022-09-10T06:42:01.977Z,13.50
2022-09-10T06:45:04.134Z,13.60
2022-09-10T06:48:37.820Z,13.50
2022-09-10T06:51:28.065Z,13.70
2022-09-10T06:54:29.912Z,13.60
2022-09-10T06:57:31.880Z,13.70
2022-09-10T07:00:33.716Z,14.00
2022-09-10T07:03:36.090Z,14.00
2022-09-10T07:06:38.359Z,14.20
2022-09-10T07:09:40.318Z,13.80
2022-09-10T07:12:42.195Z,13.80
2022-09-10T07:15:45.764Z,13.90
2022-09-10T07:18:52.190Z,13.80
2022-09-10T07:21:54.325Z,13.70
2022-09-10T07:24:56.219Z,13.80
2022-09-10T07:27:58.094Z,13.60
2022-09-10T07:30:59.970Z,13.80
2022-09-10T07:34:03.048Z,13.70
2022-09-10T07:37:05.493Z,13.80
2022-09-10T07:40:08.366Z,13.80
2022-09-10T07:43:10.422Z,13.80
2022-09-10T07:46:19.397Z,13.90
2022-09-10T07:49:21.270Z,13.90
2022-09-10T07:52:23.126Z,13.90
2022-09-10T07:55:24.990Z,14.10
2022-09-10T07:58:28.201Z,14.20
2022-09-10T08:01:30.977Z,14.20
2022-09-10T08:04:37.079Z,14.30
2022-09-10T08:07:39.818Z,14.30
2022-09-10T08:10:42.298Z,14.70
2022-09-10T08:13:48.962Z,14.70
2022-09-10T08:16:51.019Z,14.70
2022-09-10T08:19:53.941Z,14.50
2022-09-10T08:22:57.569Z,14.20
2022-09-10T08:25:59.473Z,14.30
2022-09-10T08:29:02.853Z,14.40
2022-09-10T08:32:05.176Z,14.40
2022-09-10T08:35:07.375Z,14.40
2022-09-10T08:38:10.263Z,14.50
2022-09-10T08:41:32.340Z,14.50
2022-09-10T08:44:49.982Z,15.00
2022-09-10T08:48:03.153Z,15.90
2022-09-10T08:51:16.006Z,15.60
2022-09-10T08:54:26.114Z,15.30
2022-09-10T08:57:40.432Z,15.50
2022-09-10T09:00:44.755Z,15.20
2022-09-10T09:03:48.006Z,15.40
2022-09-10T09:06:56.666Z,15.30
2022-09-10T09:09:59.507Z,15.20
2022-09-10T09:13:26.604Z,15.00
2022-09-10T09:16:34.985Z,15.20
2022-09-10T09:19:43.346Z,15.10
2022-09-10T09:22:52.568Z,14.90
2022-09-10T09:25:59.305Z,15.20
2022-09-10T09:29:15.077Z,15.30
2022-09-10T09:32:20.534Z,15.40
2022-09-10T09:35:25.852Z,15.70
2022-09-10T09:38:41.519Z,15.60
2022-09-10T09:41:57.889Z,15.80
2022-09-10T09:45:14.794Z,16.20
2022-09-10T09:48:19.211Z,16.50
2022-09-10T09:51:22.049Z,16.90
2022-09-10T09:58:21.045Z,16.30
2022-09-10T10:01:27.001Z,16.70
2022-09-10T10:04:33.920Z,16.10
2022-09-10T10:07:36.572Z,16.00
2022-09-10T10:10:38.533Z,16.60
2022-09-10T10:13:43.007Z,16.60
2022-09-10T10:16:45.916Z,16.20
2022-09-10T10:20:08.855Z,16.10
2022-09-10T10:23:33.751Z,15.70
2022-09-10T10:26:36.841Z,15.50
2022-09-10T10:29:39.380Z,15.30
2022-09-10T10:32:53.166Z,15.30
2022-09-10T10:36:26.481Z,15.60
2022-09-10T10:40:10.420Z,15.00
2022-09-10T10:43:37.318Z,15.00
2022-09-10T10:46:48.818Z,15.30
2022-09-10T10:50:09.138Z,15.20
2022-09-10T10:53:14.656Z,15.30
2022-09-10T10:56:40.837Z,15.40
2022-09-10T11:00:10.539Z,15.10
2022-09-10T11:03:22.644Z,14.90
2022-09-10T11:06:39.411Z,15.00
2022-09-10T11:09:47.368Z,14.90
2022-09-10T11:13:11.843Z,15.10
2022-09-10T11:16:22.510Z,15.10
2022-09-10T11:19:37.250Z,15.10
2022-09-10T11:22:45.446Z,15.20
2022-09-10T11:25:50.332Z,15.10
2022-09-10T11:29:23.211Z,15.20
2022-09-10T11:32:44.009Z,15.40
2022-09-10T11:36:27.435Z,15.70
2022-09-10T11:39:32.035Z,15.80
2022-09-10T11:42:44.402Z,15.60
2022-09-10T11:45:55.027Z,15.50
2022-09-10T11:49:36.493Z,15.70
2022-09-10T11:52:40.233Z,15.30
2022-09-10T11:55:57.833Z,15.20
2022-09-10T11:59:20.872Z,15.20
2022-09-10T12:02:50.808Z,15.30
2022-09-10T12:06:05.486Z,15.40
2022-09-10T12:09:45.679Z,15.50
2022-09-10T12:12:50.196Z,15.50
2022-09-10T12:15:57.362Z,15.40
2022-09-10T12:19:02.858Z,15.10
2022-09-10T12:22:27.304Z,15.10
2022-09-10T12:25:34.305Z,15.30
2022-09-10T12:28:42.332Z,15.10
2022-09-10T12:32:22.054Z,15.00
2022-09-10T12:35:35.800Z,14.70
2022-09-10T12:39:01.536Z,14.80
2022-09-10T12:42:24.968Z,14.70
2022-09-10T12:46:01.092Z,14.60
2022-09-10T12:49:10.001Z,14.60
2022-09-10T12:52:13.886Z,14.70
2022-09-10T12:55:21.860Z,14.70
2022-09-10T12:58:46.341Z,14.70
2022-09-10T13:01:51.508Z,14.70
2022-09-10T13:04:59.512Z,14.60
2022-09-10T13:08:07.014Z,14.70
2022-09-10T13:11:21.132Z,14.70
2022-09-10T13:14:30.532Z,14.90
2022-09-10T13:17:47.561Z,14.90
2022-09-10T13:20:49.502Z,15.00
2022-09-10T13:23:52.040Z,14.90
2022-09-10T13:27:12.709Z,14.90
2022-09-10T13:30:19.501Z,14.80
2022-09-10T13:33:25.685Z,14.60
2022-09-10T13:36:48.201Z,14.80
2022-09-10T13:40:09.165Z,14.80
2022-09-10T13:44:01.033Z,14.70
2022-09-10T13:47:16.676Z,14.60
2022-09-10T13:50:23.852Z,14.50
2022-09-10T13:53:29.144Z,14.40
2022-09-10T13:56:33.375Z,14.40
2022-09-10T13:59:36.902Z,14.30
2022-09-10T14:02:50.947Z,14.20
2022-09-10T14:06:11.996Z,14.20
2022-09-10T14:09:13.998Z,14.10
2022-09-10T14:12:20.916Z,14.00
2022-09-10T14:15:29.250Z,14.00
2022-09-10T14:18:45.191Z,14.00
2022-09-10T14:21:51.774Z,14.00
2022-09-10T14:25:05.380Z,14.10
2022-09-10T14:28:16.315Z,14.20
2022-09-10T14:31:22.933Z,14.30
2022-09-10T14:34:32.337Z,14.30
2022-09-10T14:37:39.673Z,14.30
2022-09-10T14:40:41.526Z,14.20
2022-09-10T14:43:43.588Z,14.30
2022-09-10T14:46:46.690Z,14.30
2022-09-10T14:49:48.560Z,14.80
2022-09-10T14:52:50.368Z,14.60
2022-09-10T14:55:52.292Z,14.80
2022-09-10T14:58:57.178Z,14.70
2022-09-10T15:02:05.827Z,14.40
2022-09-10T15:05:17.752Z,14.40
2022-09-10T15:08:19.695Z,14.60
2022-09-10T15:11:26.174Z,14.70
2022-09-10T15:14:28.362Z,14.40
2022-09-10T15:17:30.210Z,14.50
2022-09-10T15:32:01.080Z,14.50
2022-09-10T15:35:04.398Z,14.10
2022-09-10T15:38:06.173Z,13.90
2022-09-10T15:41:13.501Z,13.80
2022-09-10T15:44:15.513Z,13.70
2022-09-10T15:47:17.347Z,13.80
2022-09-10T15:50:19.329Z,13.80
2022-09-10T15:53:21.294Z,13.80
2022-09-10T15:56:26.669Z,13.90
2022-09-10T15:59:29.847Z,13.80
2022-09-10T16:02:31.842Z,13.70
2022-09-10T16:05:35.417Z,13.50
2022-09-10T16:08:37.640Z,13.50
2022-09-10T16:11:41.919Z,13.60
2022-09-10T16:14:45.594Z,13.60
2022-09-10T16:17:47.546Z,13.60
2022-09-10T16:20:49.469Z,13.60
2022-09-10T16:23:53.351Z,13.50
2022-09-10T16:26:55.363Z,13.60
2022-09-10T16:29:57.297Z,13.70
2022-09-10T16:32:59.306Z,13.70
2022-09-10T16:36:05.001Z,13.50
2022-09-10T16:39:12.363Z,13.60
2022-09-10T16:42:14.477Z,13.60
2022-09-10T16:45:17.816Z,13.60
2022-09-10T16:48:19.558Z,13.60
2022-09-10T16:51:24.405Z,13.60
2022-09-10T16:54:26.714Z,13.50
2022-09-10T16:57:28.570Z,13.50
2022-09-10T17:00:30.418Z,13.50
2022-09-10T17:03:32.334Z,13.60
2022-09-10T17:06:35.173Z,13.50
2022-09-10T17:09:37.070Z,13.60
2022-09-10T17:12:38.888Z,13.60
2022-09-10T17:15:42.288Z,13.50
2022-09-10T17:18:44.797Z,13.40
2022-09-10T17:21:51.435Z,13.50
2022-09-10T17:24:53.996Z,13.50
2022-09-10T17:27:56.063Z,13.50
2022-09-10T17:30:58.175Z,13.50
2022-09-10T17:34:00.974Z,13.50
2022-09-10T17:37:02.943Z,13.40
2022-09-10T17:40:05.747Z,13.40
2022-09-10T17:43:08.416Z,13.50
2022-09-10T17:46:15.083Z,13.40
2022-09-10T17:49:17.076Z,13.50
2022-09-10T17:52:18.950Z,13.60
2022-09-10T17:55:20.790Z,13.60
2022-09-10T17:58:22.751Z,13.70
2022-09-10T18:01:30.296Z,13.60
2022-09-10T18:04:32.506Z,13.50
2022-09-10T18:07:34.404Z,13.60
2022-09-10T18:10:36.866Z,13.50
2022-09-10T18:13:39.103Z,13.60
2022-09-10T18:16:41.115Z,13.60
2022-09-10T18:19:43.073Z,13.60
2022-09-10T18:22:44.955Z,13.70
2022-09-10T18:25:49.962Z,13.70
2022-09-10T18:29:00.215Z,13.80
2022-09-10T18:32:02.281Z,13.80
2022-09-10T18:35:04.519Z,13.80
2022-09-10T18:38:06.376Z,13.80
2022-09-10T18:41:21.369Z,13.90
2022-09-10T18:44:26.189Z,13.80
2022-09-10T18:47:44.010Z,13.80
2022-09-10T18:50:47.387Z,13.80
2022-09-10T18:53:53.179Z,13.90
2022-09-10T18:56:55.078Z,13.90
2022-09-10T18:59:57.222Z,14.00
2022-09-10T19:02:59.080Z,14.00
2022-09-10T19:06:06.076Z,14.00
2022-09-10T19:09:11.010Z,14.00
2022-09-10T19:12:17.401Z,14.00
2022-09-10T19:15:21.029Z,14.10
2022-09-10T19:18:23.052Z,14.10
2022-09-10T19:21:26.481Z,14.00
2022-09-10T19:24:51.071Z,14.00
2022-09-10T19:27:52.843Z,14.00
2022-09-10T19:30:55.056Z,14.00
2022-09-10T19:33:59.831Z,14.10
2022-09-10T19:37:01.907Z,14.00
2022-09-10T19:40:04.129Z,14.00
2022-09-10T19:43:06.163Z,13.90
2022-09-10T19:46:12.796Z,13.90
2022-09-10T19:49:14.935Z,13.90
2022-09-10T19:52:17.186Z,13.90
2022-09-10T19:55:20.432Z,13.80
2022-09-10T19:58:22.261Z,13.80
2022-09-10T20:01:33.090Z,13.80
2022-09-10T20:04:35.732Z,13.80
2022-09-10T20:07:37.640Z,13.80
2022-09-10T20:10:39.517Z,13.80
2022-09-10T20:13:41.810Z,13.80
2022-09-10T20:16:45.378Z,13.80
2022-09-10T20:19:47.748Z,13.80
2022-09-10T20:22:51.600Z,13.80
2022-09-10T20:25:53.485Z,13.80
2022-09-10T20:29:05.216Z,13.80
2022-09-10T20:32:07.121Z,13.80
2022-09-10T20:35:10.318Z,13.80
2022-09-10T20:38:12.885Z,13.80
2022-09-10T20:41:15.901Z,13.80
2022-09-10T20:44:18.448Z,13.80
2022-09-10T20:47:20.275Z,13.70
2022-09-10T20:50:22.602Z,13.70
2022-09-10T20:53:25.489Z,13.70
2022-09-10T20:56:27.584Z,13.50
2022-09-10T20:59:30.526Z,13.60
2022-09-10T21:02:32.699Z,13.40
2022-09-10T21:05:34.678Z,13.40
2022-09-10T21:08:38.284Z,13.40
2022-09-10T21:11:40.517Z,13.30
2022-09-10T21:14:42.385Z,13.20
2022-09-10T21:17:45.017Z,13.30
2022-09-10T21:20:47.270Z,13.30
2022-09-10T21:23:54.016Z,13.30
2022-09-10T21:26:56.393Z,13.30
2022-09-10T21:29:58.913Z,13.30
2022-09-10T21:33:00.775Z,13.30
2022-09-10T21:36:07.938Z,13.30
2022-09-10T21:39:17.717Z,13.20
2022-09-10T21:42:19.952Z,13.20
2022-09-10T21:45:26.059Z,13.20
2022-09-10T21:48:29.242Z,13.10
2022-09-10T21:51:31.250Z,13.10
2022-09-10T21:54:33.065Z,13.00
2022-09-10T21:57:34.966Z,13.00
2022-09-10T22:00:36.801Z,13.00
2022-09-10T22:03:39.349Z,13.00
2022-09-10T22:06:41.574Z,13.00
2022-09-10T22:09:43.557Z,13.00
2022-09-10T22:12:46.360Z,13.00
2022-09-10T22:15:51.571Z,12.90
2022-09-10T22:18:56.232Z,13.00
2022-09-10T22:21:58.588Z,13.00
2022-09-10T22:25:01.390Z,13.00
2022-09-10T22:28:03.809Z,13.00
2022-09-10T22:31:11.441Z,13.00
2022-09-10T22:34:15.613Z,13.00
2022-09-10T22:37:17.951Z,13.00
2022-09-10T22:40:20.224Z,13.10
2022-09-10T22:43:22.077Z,12.90
2022-09-10T22:46:24.203Z,12.90
2022-09-10T22:49:26.234Z,13.00
2022-09-10T22:52:32.814Z,13.00
2022-09-10T22:55:34.898Z,12.90
2022-09-10T22:58:37.292Z,12.90
2022-09-10T23:01:39.395Z,12.90
2022-09-10T23:04:42.708Z,12.90
2022-09-10T23:07:44.645Z,13.00
2022-09-10T23:10:46.553Z,13.00
2022-09-10T23:14:01.454Z,12.90
2022-09-10T23:17:04.093Z,12.90
2022-09-10T23:20:07.189Z,12.90
2022-09-10T23:23:09.039Z,12.90
2022-09-10T23:26:11.404Z,12.90
2022-09-10T23:29:16.952Z,12.90
2022-09-10T23:32:18.808Z,12.90
2022-09-10T23:35:20.686Z,12.90
2022-09-10T23:38:22.988Z,12.90
2022-09-10T23:41:25.092Z,12.90
2022-09-10T23:44:27.160Z,12.90
2022-09-10T23:47:29.057Z,12.90
2022-09-10T23:50:30.978Z,13.00
2022-09-10T23:53:33.115Z,13.00
2022-09-10T23:56:35.300Z,12.90
2022-09-10T23:59:37.234Z,12.90
